createdAt,value
2022-10-19T00:01:27.269Z,7.05
2022-10-19T00:03:57.272Z,5.83
2022-10-19T00:06:38.009Z,5.50
2022-10-19T00:09:09.539Z,6.03
2022-10-19T00:11:41.831Z,5.40
2022-10-19T00:14:14.922Z,5.20
2022-10-19T00:16:46.000Z,7.37
2022-10-19T00:19:19.117Z,6.83
2022-10-19T00:21:47.694Z,7.67
2022-10-19T00:24:16.553Z,9.60
2022-10-19T00:26:44.786Z,7.57
2022-10-19T00:29:14.606Z,7.33
2022-10-19T00:31:44.597Z,7.87
2022-10-19T00:34:12.865Z,11.07
2022-10-19T00:36:42.475Z,7.77
2022-10-19T00:39:14.941Z,11.13
2022-10-19T00:41:44.779Z,6.77
2022-10-19T00:45:05.449Z,8.80
2022-10-19T00:47:41.019Z,7.37
2022-10-19T00:50:10.655Z,8.07
2022-10-19T00:52:39.082Z,8.20
2022-10-19T00:55:10.494Z,7.10
2022-10-19T00:57:38.754Z,7.70
2022-10-19T01:00:09.543Z,7.10
2022-10-19T01:02:39.602Z,9.47
2022-10-19T01:05:09.371Z,7.83
2022-10-19T01:07:37.731Z,8.03
2022-10-19T01:10:07.538Z,8.80
2022-10-19T01:12:58.106Z,8.83
2022-10-19T01:15:34.637Z,7.17
2022-10-19T01:18:12.072Z,8.93
2022-10-19T01:21:18.888Z,12.97
2022-10-19T01:24:28.897Z,6.93
2022-10-19T01:27:28.340Z,6.60
2022-10-19T01:30:08.301Z,7.77
2022-10-19T01:32:52.194Z,9.43
2022-10-19T01:35:30.169Z,8.63
2022-10-19T01:38:16.323Z,6.80
2022-10-19T01:40:55.610Z,7.90
2022-10-19T01:43:34.596Z,7.13
2022-10-19T01:46:12.544Z,11.53
2022-10-19T01:48:47.557Z,16.60
2022-10-19T01:51:20.565Z,7.37
2022-10-19T01:53:53.200Z,7.93
2022-10-19T01:56:25.851Z,8.10
2022-10-19T01:58:57.861Z,12.60
2022-10-19T02:01:55.961Z,7.30
2022-10-19T02:04:49.829Z,9.67
2022-10-19T02:07:20.124Z,4.80
2022-10-19T02:09:48.554Z,3.90
2022-10-19T02:12:17.353Z,5.37
2022-10-19T02:14:49.067Z,5.70
2022-10-19T02:17:22.659Z,4.87
2022-10-19T02:19:50.923Z,7.20
2022-10-19T02:22:19.369Z,4.37
2022-10-19T02:24:47.641Z,5.67
2022-10-19T02:27:15.971Z,6.37
2022-10-19T02:29:44.300Z,5.23
2022-10-19T02:32:13.318Z,3.83
2022-10-19T02:34:43.343Z,4.10
2022-10-19T02:37:11.788Z,3.83
2022-10-19T02:39:40.941Z,3.93
2022-10-19T02:42:13.778Z,5.47
2022-10-19T02:44:48.197Z,3.60
2022-10-19T02:47:20.079Z,7.70
2022-10-19T02:49:51.183Z,12.27
2022-10-19T02:52:19.830Z,4.80
2022-10-19T02:54:48.736Z,4.10
2022-10-19T02:57:20.065Z,11.37
2022-10-19T02:59:48.582Z,8.60
2022-10-19T03:02:18.005Z,8.63
2022-10-19T03:07:24.320Z,4.43
2022-10-19T03:09:52.734Z,4.13
2022-10-19T03:12:21.011Z,10.00
2022-10-19T03:14:49.249Z,6.70
2022-10-19T03:17:17.403Z,9.93
2022-10-19T03:19:45.755Z,4.73
2022-10-19T03:22:15.373Z,3.97
2022-10-19T03:24:44.949Z,5.40
2022-10-19T03:27:13.202Z,3.50
2022-10-19T03:29:41.426Z,4.93
2022-10-19T03:32:09.650Z,4.20
2022-10-19T03:34:37.871Z,2.47
2022-10-19T03:37:06.049Z,2.70
2022-10-19T03:39:34.299Z,4.27
2022-10-19T03:42:03.886Z,15.17
2022-10-19T03:44:32.300Z,2.73
2022-10-19T03:47:00.562Z,2.90
2022-10-19T03:49:28.852Z,11.77
2022-10-19T03:51:57.107Z,4.80
2022-10-19T03:54:27.407Z,3.00
2022-10-19T03:56:55.850Z,3.70
2022-10-19T03:59:25.444Z,3.47
2022-10-19T04:01:53.692Z,4.53
2022-10-19T04:04:21.970Z,3.47
2022-10-19T04:06:53.202Z,2.50
2022-10-19T04:09:23.682Z,2.93
2022-10-19T04:11:51.921Z,2.50
2022-10-19T04:14:32.027Z,4.37
2022-10-19T04:17:03.662Z,3.20
2022-10-19T04:19:31.946Z,3.63
2022-10-19T04:22:00.674Z,4.37
2022-10-19T04:24:29.405Z,4.80
2022-10-19T04:26:58.223Z,5.93
2022-10-19T04:29:29.775Z,5.47
2022-10-19T04:31:58.282Z,6.43
2022-10-19T04:34:28.128Z,4.83
2022-10-19T04:36:59.296Z,4.40
2022-10-19T04:39:27.670Z,3.17
2022-10-19T04:41:55.893Z,3.60
2022-10-19T04:46:57.505Z,3.83
2022-10-19T04:49:27.091Z,3.20
2022-10-19T04:51:55.270Z,3.83
2022-10-19T04:54:23.890Z,3.00
2022-10-19T04:56:53.761Z,3.53
2022-10-19T04:59:22.029Z,4.17
2022-10-19T05:01:50.269Z,3.27
2022-10-19T05:04:18.528Z,3.83
2022-10-19T05:06:48.101Z,4.70
2022-10-19T05:09:16.298Z,3.77
2022-10-19T05:11:44.524Z,4.47
2022-10-19T05:14:12.779Z,4.67
2022-10-19T05:16:40.990Z,3.97
2022-10-19T05:19:13.534Z,5.87
2022-10-19T05:21:41.983Z,4.00
2022-10-19T05:24:14.201Z,4.10
2022-10-19T05:26:42.519Z,3.93
2022-10-19T05:29:13.780Z,3.90
2022-10-19T05:31:42.639Z,4.10
2022-10-19T05:34:11.005Z,5.30
2022-10-19T05:36:41.152Z,5.23
2022-10-19T05:39:15.032Z,5.03
2022-10-19T05:41:44.962Z,5.10
2022-10-19T05:44:17.054Z,5.70
2022-10-19T05:46:46.226Z,4.57
2022-10-19T05:49:15.206Z,5.70
2022-10-19T05:51:43.911Z,4.63
2022-10-19T05:54:14.628Z,5.17
2022-10-19T05:56:44.441Z,5.27
2022-10-19T05:59:17.216Z,4.57
2022-10-19T06:01:46.050Z,6.67
2022-10-19T06:04:39.648Z,4.47
2022-10-19T06:07:07.879Z,4.47
2022-10-19T06:09:37.476Z,5.00
2022-10-19T06:12:05.779Z,8.87
2022-10-19T06:14:34.038Z,7.50
2022-10-19T06:17:02.322Z,7.83
2022-10-19T06:19:30.563Z,8.60
2022-10-19T06:21:58.767Z,9.83
2022-10-19T06:24:26.968Z,11.73
2022-10-19T06:26:56.554Z,9.50
2022-10-19T06:29:24.778Z,8.37
2022-10-19T06:31:54.195Z,8.07
2022-10-19T06:34:22.517Z,8.57
2022-10-19T06:36:50.809Z,8.63
2022-10-19T06:39:19.253Z,12.53
2022-10-19T06:41:47.853Z,10.50
2022-10-19T06:44:23.207Z,10.73
2022-10-19T06:46:51.386Z,11.07
2022-10-19T06:49:19.654Z,9.30
2022-10-19T06:51:47.879Z,10.93
2022-10-19T06:54:16.224Z,10.90
2022-10-19T06:56:44.884Z,12.73
2022-10-19T06:59:14.830Z,10.87
2022-10-19T07:01:44.823Z,10.33
2022-10-19T07:04:13.021Z,11.60
2022-10-19T07:06:41.255Z,12.13
2022-10-19T07:09:09.550Z,11.00
2022-10-19T07:11:38.872Z,9.83
2022-10-19T07:14:08.621Z,10.90
2022-10-19T07:16:36.808Z,11.23
2022-10-19T07:19:06.437Z,13.60
2022-10-19T07:21:40.753Z,12.63
2022-10-19T07:24:09.159Z,12.70
2022-10-19T07:26:37.914Z,13.47
2022-10-19T07:29:06.385Z,20.50
2022-10-19T07:31:34.663Z,15.30
2022-10-19T07:34:06.636Z,15.07
2022-10-19T07:36:36.959Z,13.37
2022-10-19T07:39:07.225Z,12.97
2022-10-19T07:41:35.944Z,14.47
2022-10-19T07:44:04.410Z,13.83
2022-10-19T07:46:35.721Z,11.23
2022-10-19T07:49:07.192Z,12.13
2022-10-19T07:51:35.420Z,13.37
2022-10-19T07:54:04.181Z,14.00
2022-10-19T07:56:33.503Z,13.90
2022-10-19T07:59:02.785Z,11.90
2022-10-19T08:01:33.968Z,10.63
2022-10-19T08:07:01.417Z,11.20
2022-10-19T08:12:17.801Z,11.30
2022-10-19T08:14:47.918Z,8.40
2022-10-19T08:17:17.677Z,9.77
2022-10-19T08:19:46.397Z,7.90
2022-10-19T08:22:15.990Z,8.43
2022-10-19T08:24:44.214Z,10.70
2022-10-19T08:27:12.389Z,8.40
2022-10-19T08:29:40.600Z,10.80
2022-10-19T08:32:08.800Z,9.70
2022-10-19T08:34:37.034Z,8.55
2022-10-19T08:37:14.725Z,8.02
2022-10-19T08:39:55.463Z,8.57
2022-10-19T08:42:31.200Z,8.52
2022-10-19T08:45:48.976Z,8.13
2022-10-19T08:48:27.133Z,11.57
2022-10-19T08:50:57.079Z,7.50
2022-10-19T08:53:35.107Z,9.30
2022-10-19T08:56:45.644Z,8.90
2022-10-19T08:59:20.065Z,7.53
2022-10-19T09:01:53.945Z,8.73
2022-10-19T09:04:27.395Z,9.90
2022-10-19T09:07:20.506Z,8.60
2022-10-19T09:09:53.493Z,9.67
2022-10-19T09:12:35.112Z,7.53
2022-10-19T09:15:08.028Z,7.60
2022-10-19T09:17:36.499Z,7.05
2022-10-19T09:20:19.156Z,7.65
2022-10-19T09:22:52.215Z,7.68
2022-10-19T09:25:23.046Z,8.60
2022-10-19T09:30:38.990Z,8.75
2022-10-19T09:33:15.797Z,6.65
2022-10-19T09:35:46.678Z,6.80
2022-10-19T09:38:19.806Z,7.80
2022-10-19T09:40:48.048Z,9.07
2022-10-19T09:43:21.932Z,6.75
2022-10-19T09:45:55.137Z,8.55
2022-10-19T09:48:32.226Z,8.05
2022-10-19T09:51:02.491Z,8.40
2022-10-19T09:53:31.351Z,7.90
2022-10-19T09:56:06.111Z,10.45
2022-10-19T09:58:36.927Z,6.00
2022-10-19T10:01:05.452Z,8.13
2022-10-19T10:03:39.488Z,7.68
2022-10-19T10:06:12.014Z,9.18
2022-10-19T10:08:46.487Z,6.70
2022-10-19T10:11:23.573Z,7.43
2022-10-19T10:13:56.101Z,9.32
2022-10-19T10:16:30.371Z,10.30
2022-10-19T10:19:02.296Z,6.85
2022-10-19T10:21:34.615Z,6.50
2022-10-19T10:24:06.533Z,10.27
2022-10-19T10:26:42.362Z,8.95
2022-10-19T10:29:24.482Z,8.73
2022-10-19T10:31:56.767Z,7.63
2022-10-19T10:34:50.193Z,9.70
2022-10-19T10:37:24.314Z,7.55
2022-10-19T10:39:57.689Z,7.65
2022-10-19T10:42:35.800Z,9.05
2022-10-19T10:45:17.440Z,7.05
2022-10-19T10:47:48.272Z,8.27
2022-10-19T10:50:24.453Z,7.80
2022-10-19T10:53:02.073Z,8.15
2022-10-19T10:55:31.641Z,9.57
2022-10-19T10:58:13.084Z,7.55
2022-10-19T11:00:43.369Z,8.80
2022-10-19T11:03:20.361Z,8.10
2022-10-19T11:05:53.618Z,7.65
2022-10-19T11:08:27.942Z,11.30
2022-10-19T11:11:02.995Z,8.13
2022-10-19T11:13:36.620Z,8.52
2022-10-19T11:16:34.836Z,10.77
2022-10-19T11:21:57.313Z,9.77
2022-10-19T11:24:38.609Z,5.95
2022-10-19T11:27:20.600Z,5.72
2022-10-19T11:30:10.292Z,7.15
2022-10-19T11:32:56.477Z,6.22
2022-10-19T11:35:52.837Z,7.07
2022-10-19T11:38:36.154Z,4.97
2022-10-19T11:41:19.477Z,5.88
2022-10-19T11:44:06.272Z,6.68
2022-10-19T11:46:43.075Z,6.15
2022-10-19T11:49:31.802Z,5.07
2022-10-19T11:52:06.426Z,4.20
2022-10-19T11:54:49.858Z,4.95
2022-10-19T11:57:24.935Z,5.70
2022-10-19T12:00:15.307Z,7.45
2022-10-19T12:03:43.556Z,5.40
2022-10-19T12:06:21.919Z,5.93
2022-10-19T12:09:21.351Z,8.25
2022-10-19T12:12:06.783Z,8.52
2022-10-19T12:14:40.648Z,4.43
2022-10-19T12:17:15.485Z,5.22
2022-10-19T12:19:49.105Z,5.30
2022-10-19T12:22:23.854Z,5.63
2022-10-19T12:24:55.391Z,6.35
2022-10-19T12:27:31.890Z,4.80
2022-10-19T12:30:07.819Z,6.10
2022-10-19T12:32:45.813Z,3.42
2022-10-19T12:35:41.122Z,3.60
2022-10-19T12:38:16.620Z,3.40
2022-10-19T12:40:52.165Z,3.97
2022-10-19T12:43:33.909Z,3.75
2022-10-19T12:46:16.142Z,5.82
2022-10-19T12:48:44.303Z,4.18
2022-10-19T12:51:18.250Z,3.42
2022-10-19T12:53:49.999Z,2.80
2022-10-19T12:56:22.722Z,4.97
2022-10-19T13:05:07.504Z,4.30
2022-10-19T13:07:37.440Z,8.55
2022-10-19T13:10:20.100Z,5.20
2022-10-19T13:12:50.069Z,7.22
2022-10-19T13:15:51.435Z,5.47
2022-10-19T13:19:23.525Z,5.05
2022-10-19T13:22:27.571Z,4.63
2022-10-19T13:25:27.222Z,7.70
2022-10-19T13:27:58.441Z,3.88
2022-10-19T13:31:06.194Z,7.72
2022-10-19T13:33:51.438Z,5.85
2022-10-19T13:36:21.812Z,4.25
2022-10-19T13:39:14.622Z,3.65
2022-10-19T13:41:52.919Z,4.63
2022-10-19T13:44:28.060Z,10.32
2022-10-19T13:47:31.364Z,3.38
2022-10-19T13:50:16.429Z,6.15
2022-10-19T13:53:14.901Z,5.72
2022-10-19T13:56:23.713Z,4.82
2022-10-19T13:59:33.324Z,8.20
2022-10-19T14:02:43.805Z,4.10
2022-10-19T14:05:51.148Z,4.00
2022-10-19T14:08:39.182Z,5.35
2022-10-19T14:11:15.517Z,7.07
2022-10-19T14:13:44.323Z,7.05
2022-10-19T14:16:21.941Z,11.07
2022-10-19T14:18:56.035Z,6.63
2022-10-19T14:21:32.976Z,9.07
2022-10-19T14:24:02.668Z,8.27
2022-10-19T14:26:31.999Z,8.05
2022-10-19T14:29:01.590Z,7.43
2022-10-19T14:31:36.338Z,6.70
2022-10-19T14:34:09.207Z,8.85
2022-10-19T14:36:40.900Z,7.45
2022-10-19T14:39:09.263Z,8.73
2022-10-19T14:41:40.807Z,8.05
2022-10-19T14:44:42.352Z,9.48
2022-10-19T14:47:23.878Z,6.95
2022-10-19T14:49:52.455Z,9.07
2022-10-19T14:55:06.485Z,7.05
2022-10-19T14:57:38.081Z,8.20
2022-10-19T15:00:12.572Z,8.38
2022-10-19T15:02:46.748Z,9.32
2022-10-19T15:05:21.591Z,9.20
2022-10-19T15:07:50.853Z,12.88
2022-10-19T15:10:22.506Z,8.52
2022-10-19T15:12:52.398Z,9.75
2022-10-19T15:15:27.161Z,7.53
2022-10-19T15:17:58.600Z,8.32
2022-10-19T15:20:36.328Z,6.93
2022-10-19T15:23:34.534Z,8.43
2022-10-19T15:26:09.582Z,8.50
2022-10-19T15:28:43.410Z,7.85
2022-10-19T15:31:19.143Z,9.35
2022-10-19T15:33:52.300Z,9.20
2022-10-19T15:36:22.357Z,9.55
2022-10-19T15:39:11.863Z,9.27
2022-10-19T15:41:49.570Z,9.32
2022-10-19T15:44:33.871Z,6.57
2022-10-19T15:47:20.856Z,9.20
2022-10-19T15:50:01.703Z,8.20
2022-10-19T15:52:33.331Z,8.07
2022-10-19T15:55:02.374Z,10.00
2022-10-19T15:57:34.447Z,8.35
2022-10-19T16:00:12.140Z,7.57
2022-10-19T16:02:40.798Z,8.57
2022-10-19T16:05:11.522Z,9.05
2022-10-19T16:07:42.056Z,9.25
2022-10-19T16:10:18.387Z,9.25
2022-10-19T16:12:46.706Z,9.25
2022-10-19T16:15:17.424Z,12.02
2022-10-19T16:17:48.647Z,11.75
2022-10-19T16:20:19.319Z,8.55
2022-10-19T16:22:49.211Z,8.48
2022-10-19T16:25:18.452Z,10.80
2022-10-19T16:27:46.666Z,7.95
2022-10-19T16:30:15.122Z,9.30
2022-10-19T16:32:43.338Z,10.15
2022-10-19T16:35:12.113Z,8.85
2022-10-19T16:37:41.653Z,9.32
2022-10-19T16:40:11.486Z,10.13
2022-10-19T16:42:39.690Z,9.07
2022-10-19T16:45:09.593Z,9.52
2022-10-19T16:47:37.835Z,9.10
2022-10-19T16:50:07.833Z,11.77
2022-10-19T16:52:36.185Z,9.20
2022-10-19T16:55:07.151Z,10.23
2022-10-19T16:57:35.424Z,10.57
2022-10-19T17:00:05.190Z,8.63
2022-10-19T17:02:33.966Z,11.13
2022-10-19T17:05:02.358Z,12.07
2022-10-19T17:07:30.519Z,10.77
2022-10-19T17:09:58.822Z,16.00
2022-10-19T17:12:28.487Z,11.95
2022-10-19T17:15:11.549Z,10.10
2022-10-19T17:17:44.898Z,11.30
2022-10-19T17:20:13.835Z,12.98
2022-10-19T17:22:42.111Z,9.52
2022-10-19T17:25:11.192Z,11.43
2022-10-19T17:27:40.777Z,12.05
2022-10-19T17:30:10.007Z,12.43
2022-10-19T17:32:38.202Z,12.80
2022-10-19T17:35:08.066Z,9.93
2022-10-19T17:37:36.607Z,14.33
2022-10-19T17:40:06.396Z,9.53
2022-10-19T17:42:36.601Z,11.30
2022-10-19T17:45:07.177Z,16.38
2022-10-19T17:47:35.685Z,11.10
2022-10-19T17:50:04.327Z,12.17
2022-10-19T17:52:32.503Z,11.27
2022-10-19T17:55:11.578Z,11.50
2022-10-19T17:57:40.209Z,13.33
2022-10-19T18:00:11.270Z,11.20
2022-10-19T18:02:46.035Z,10.33
2022-10-19T18:05:14.769Z,10.00
2022-10-19T18:07:45.623Z,10.37
2022-10-19T18:10:15.455Z,14.07
2022-10-19T18:12:43.678Z,9.00
2022-10-19T18:15:13.297Z,10.00
2022-10-19T18:17:41.504Z,10.37
2022-10-19T18:20:11.706Z,10.67
2022-10-19T18:22:39.906Z,10.63
2022-10-19T18:25:09.248Z,9.67
2022-10-19T18:27:37.756Z,10.67
2022-10-19T18:30:09.198Z,10.73
2022-10-19T18:32:38.735Z,8.73
2022-10-19T18:35:08.885Z,10.43
2022-10-19T18:37:37.184Z,12.33
2022-10-19T18:40:06.240Z,8.13
2022-10-19T18:42:34.965Z,9.83
2022-10-19T18:45:03.400Z,11.30
2022-10-19T18:47:32.050Z,11.87
2022-10-19T18:50:01.673Z,10.77
2022-10-19T18:52:29.957Z,11.10
2022-10-19T18:54:58.244Z,11.73
2022-10-19T18:57:31.506Z,10.57
2022-10-19T18:59:59.995Z,13.70
2022-10-19T19:02:35.449Z,10.17
2022-10-19T19:05:16.015Z,12.00
2022-10-19T19:07:44.311Z,11.50
2022-10-19T19:10:13.290Z,12.23
2022-10-19T19:12:42.165Z,10.93
2022-10-19T19:15:11.868Z,11.20
2022-10-19T19:17:40.373Z,10.57
2022-10-19T19:20:09.612Z,19.57
2022-10-19T19:22:39.228Z,16.40
2022-10-19T19:25:08.490Z,11.93
2022-10-19T19:30:11.850Z,11.10
2022-10-19T19:32:40.092Z,14.77
2022-10-19T19:35:09.282Z,25.13
2022-10-19T19:37:38.955Z,20.00
2022-10-19T19:40:09.093Z,23.30
2022-10-19T19:42:37.290Z,28.43
2022-10-19T19:45:07.882Z,18.57
2022-10-19T19:47:36.346Z,93.57
2022-10-19T19:50:05.061Z,41.57
2022-10-19T19:52:36.884Z,38.00
2022-10-19T19:55:09.821Z,35.97
2022-10-19T19:57:38.335Z,56.67
2022-10-19T20:00:08.173Z,30.80
2022-10-19T20:02:39.696Z,31.23
2022-10-19T20:05:09.137Z,36.93
2022-10-19T20:07:37.584Z,38.30
2022-10-19T20:10:08.494Z,45.20
2022-10-19T20:12:36.663Z,46.83
2022-10-19T20:15:05.462Z,57.10
2022-10-19T20:17:34.843Z,41.93
2022-10-19T20:20:03.350Z,68.60
2022-10-19T20:22:31.585Z,57.90
2022-10-19T20:24:59.833Z,51.23
2022-10-19T20:27:29.549Z,47.27
2022-10-19T20:29:58.672Z,40.73
2022-10-19T20:32:27.227Z,29.43
2022-10-19T20:34:55.503Z,51.80
2022-10-19T20:37:23.791Z,33.17
2022-10-19T20:39:52.393Z,31.40
2022-10-19T20:42:21.645Z,44.30
2022-10-19T20:44:51.219Z,23.37
2022-10-19T20:47:19.401Z,21.23
2022-10-19T20:49:47.622Z,18.17
2022-10-19T20:52:15.994Z,13.70
2022-10-19T20:54:44.608Z,15.87
2022-10-19T20:57:12.811Z,16.07
2022-10-19T20:59:41.418Z,13.33
2022-10-19T21:02:12.622Z,14.23
2022-10-19T21:04:40.924Z,12.80
2022-10-19T21:07:09.194Z,13.10
2022-10-19T21:09:37.400Z,10.43
2022-10-19T21:12:05.787Z,11.00
2022-10-19T21:14:34.059Z,9.77
2022-10-19T21:17:02.299Z,12.63
2022-10-19T21:19:32.212Z,11.47
2022-10-19T21:22:02.837Z,14.20
2022-10-19T21:24:33.590Z,11.83
2022-10-19T21:27:03.853Z,12.17
2022-10-19T21:29:32.484Z,11.40
2022-10-19T21:32:00.841Z,9.90
2022-10-19T21:34:32.155Z,11.70
2022-10-19T21:37:01.046Z,11.10
2022-10-19T21:39:29.282Z,11.73
2022-10-19T21:41:57.921Z,14.30
2022-10-19T21:44:26.863Z,12.60
2022-10-19T21:46:55.456Z,9.87
2022-10-19T21:49:23.603Z,11.17
2022-10-19T21:51:55.101Z,12.77
2022-10-19T21:54:25.459Z,10.50
2022-10-19T21:56:55.648Z,11.53
2022-10-19T21:59:23.893Z,14.20
2022-10-19T22:01:54.521Z,12.17
2022-10-19T22:04:33.782Z,11.33
2022-10-19T22:07:03.912Z,11.53
2022-10-19T22:09:32.157Z,13.80
2022-10-19T22:12:00.468Z,13.60
2022-10-19T22:14:28.750Z,14.20
2022-10-19T22:16:56.929Z,13.37
2022-10-19T22:19:26.267Z,11.50
2022-10-19T22:21:54.493Z,14.93
2022-10-19T22:24:24.050Z,13.37
2022-10-19T22:26:52.246Z,13.80
2022-10-19T22:29:20.532Z,12.27
2022-10-19T22:31:48.782Z,13.17
2022-10-19T22:34:19.225Z,11.93
2022-10-19T22:36:47.708Z,14.47
2022-10-19T22:39:17.072Z,14.90
2022-10-19T22:41:46.595Z,11.17
2022-10-19T22:44:14.772Z,10.23
2022-10-19T22:46:42.958Z,12.00
2022-10-19T22:49:11.386Z,11.37
2022-10-19T22:51:39.624Z,14.07
2022-10-19T22:54:07.819Z,12.57
2022-10-19T22:56:36.446Z,10.43
2022-10-19T22:59:07.825Z,13.00
2022-10-19T23:01:36.530Z,13.20
2022-10-19T23:04:05.273Z,10.90
2022-10-19T23:06:33.519Z,10.77
2022-10-19T23:09:01.770Z,12.27
2022-10-19T23:11:30.029Z,13.67
2022-10-19T23:13:58.699Z,11.33
2022-10-19T23:19:01.321Z,16.07
2022-10-19T23:21:29.582Z,13.57
2022-10-19T23:23:57.775Z,15.77
2022-10-19T23:26:26.373Z,11.03
2022-10-19T23:28:54.503Z,9.63
2022-10-19T23:31:26.296Z,12.97
2022-10-19T23:33:56.088Z,13.97
2022-10-19T23:36:27.925Z,14.53
2022-10-19T23:38:58.445Z,11.60
2022-10-19T23:41:26.862Z,11.73
2022-10-19T23:43:55.254Z,11.50
2022-10-19T23:46:23.445Z,12.37
2022-10-19T23:48:51.785Z,12.60
2022-10-19T23:51:23.524Z,11.03
2022-10-19T23:53:53.270Z,13.63
2022-10-19T23:56:24.401Z,11.40
2022-10-19T23:58:53.678Z,14.50
